createdAt,value
2022-11-27T00:01:38.341Z,100223.00
2022-11-27T00:04:06.597Z,100220.00
2022-11-27T00:06:40.378Z,100228.00
2022-11-27T00:09:11.343Z,100234.00
2022-11-27T00:11:45.447Z,100206.00
2022-11-27T00:14:21.316Z,100235.00
2022-11-27T00:16:55.331Z,100238.00
2022-11-27T00:19:22.386Z,100226.00
2022-11-27T00:21:49.388Z,100242.00
2022-11-27T00:24:23.423Z,100241.00
2022-11-27T00:26:50.515Z,100234.00
2022-11-27T00:29:24.432Z,100212.00
2022-11-27T00:31:58.403Z,100242.00
2022-11-27T00:34:25.386Z,100249.00
2022-11-27T00:36:59.320Z,100246.00
2022-11-27T00:39:32.328Z,100249.00
2022-11-27T00:41:59.376Z,100245.00
2022-11-27T00:44:33.356Z,100256.00
2022-11-27T00:47:00.452Z,100254.00
2022-11-27T00:49:27.605Z,100227.00
2022-11-27T00:52:01.480Z,100230.00
2022-11-27T00:54:41.567Z,100212.00
2022-11-27T00:57:08.766Z,100202.00
2022-11-27T00:59:42.397Z,100223.00
2022-11-27T01:02:09.475Z,100213.00
2022-11-27T01:04:43.377Z,100222.00
2022-11-27T01:07:16.394Z,100233.00
2022-11-27T01:09:43.394Z,100204.00
2022-11-27T01:12:17.395Z,100206.00
2022-11-27T01:14:44.553Z,100229.00
2022-11-27T01:17:18.483Z,100206.00
2022-11-27T01:19:45.474Z,100214.00
2022-11-27T01:22:12.432Z,100266.00
2022-11-27T01:24:46.383Z,100258.00
2022-11-27T01:27:20.334Z,100251.00
2022-11-27T01:29:53.340Z,100216.00
2022-11-27T01:32:20.367Z,100228.00
2022-11-27T01:34:47.463Z,100215.00
2022-11-27T01:37:21.535Z,100211.00
2022-11-27T01:39:48.665Z,100201.00
2022-11-27T01:42:15.678Z,100187.00
2022-11-27T01:44:58.443Z,100205.00
2022-11-27T01:47:43.636Z,100184.00
2022-11-27T01:50:25.388Z,100204.00
2022-11-27T01:52:56.358Z,100199.00
2022-11-27T01:56:02.432Z,100209.00
2022-11-27T01:58:30.018Z,100215.00
2022-11-27T02:01:03.420Z,100227.00
2022-11-27T02:03:37.389Z,100213.00
2022-11-27T02:06:04.698Z,100209.00
2022-11-27T02:08:38.505Z,100208.00
2022-11-27T02:11:15.444Z,100169.00
2022-11-27T02:14:31.361Z,100201.00
2022-11-27T02:17:41.454Z,100198.00
2022-11-27T02:20:30.418Z,100202.00
2022-11-27T02:23:30.097Z,100204.00
2022-11-27T02:26:47.353Z,100198.00
2022-11-27T02:29:21.487Z,100203.00
2022-11-27T02:32:15.810Z,100189.00
2022-11-27T02:34:52.382Z,100204.00
2022-11-27T02:37:32.395Z,100200.00
2022-11-27T02:40:19.430Z,100218.00
2022-11-27T02:42:59.362Z,100226.00
2022-11-27T02:45:36.857Z,100198.00
2022-11-27T02:48:11.383Z,100199.00
2022-11-27T02:50:39.444Z,100180.00
2022-11-27T02:53:23.405Z,100222.00
2022-11-27T02:55:50.797Z,100198.00
2022-11-27T02:58:27.471Z,100199.00
2022-11-27T03:00:54.400Z,100198.00
2022-11-27T03:03:27.373Z,100188.00
2022-11-27T03:06:03.420Z,100169.00
2022-11-27T03:08:43.809Z,100173.00
2022-11-27T03:11:19.361Z,100170.00
2022-11-27T03:13:50.859Z,100186.00
2022-11-27T03:17:07.461Z,100184.00
2022-11-27T03:20:04.612Z,100183.00
2022-11-27T03:22:38.410Z,100173.00
2022-11-27T03:25:06.598Z,100180.00
2022-11-27T03:27:52.595Z,100177.00
2022-11-27T03:30:19.580Z,100178.00
2022-11-27T03:32:53.491Z,100184.00
2022-11-27T03:35:24.220Z,100165.00
2022-11-27T03:37:51.551Z,100155.00
2022-11-27T03:40:25.484Z,100175.00
2022-11-27T03:43:16.433Z,100179.00
2022-11-27T03:46:00.759Z,100152.00
2022-11-27T03:48:42.444Z,100151.00
2022-11-27T03:51:17.040Z,100164.00
2022-11-27T03:54:12.483Z,100169.00
2022-11-27T03:56:48.933Z,100157.00
2022-11-27T03:59:35.416Z,100164.00
2022-11-27T04:02:02.540Z,100172.00
2022-11-27T04:04:36.466Z,100152.00
2022-11-27T04:07:03.423Z,100162.00
2022-11-27T04:09:36.393Z,100154.00
2022-11-27T04:12:03.419Z,100170.00
2022-11-27T04:14:30.574Z,100148.00
2022-11-27T04:17:04.443Z,100153.00
2022-11-27T04:19:37.438Z,100167.00
2022-11-27T04:22:04.388Z,100163.00
2022-11-27T04:24:37.571Z,100183.00
2022-11-27T04:27:11.526Z,100182.00
2022-11-27T04:29:38.541Z,100182.00
2022-11-27T04:32:12.484Z,100181.00
2022-11-27T04:34:39.575Z,100184.00
2022-11-27T04:37:06.770Z,100172.00
2022-11-27T04:39:40.499Z,100157.00
2022-11-27T04:42:07.492Z,100160.00
2022-11-27T04:44:41.728Z,100175.00
2022-11-27T04:47:08.846Z,100168.00
2022-11-27T04:49:42.417Z,100187.00
2022-11-27T04:52:09.529Z,100185.00
2022-11-27T04:54:37.098Z,100182.00
2022-11-27T04:57:10.433Z,100178.00
2022-11-27T04:59:43.457Z,100182.00
2022-11-27T05:02:10.566Z,100186.00
2022-11-27T05:04:44.491Z,100195.00
2022-11-27T05:07:11.714Z,100206.00
2022-11-27T05:09:38.728Z,100192.00
2022-11-27T05:12:12.446Z,100208.00
2022-11-27T05:14:39.769Z,100197.00
2022-11-27T05:17:06.929Z,100205.00
2022-11-27T05:19:40.466Z,100215.00
2022-11-27T05:22:07.418Z,100213.00
2022-11-27T05:24:40.823Z,100213.00
2022-11-27T05:27:08.070Z,100211.00
2022-11-27T05:29:41.508Z,100216.00
2022-11-27T05:32:08.598Z,100209.00
2022-11-27T05:34:35.579Z,100205.00
2022-11-27T05:37:09.598Z,100200.00
2022-11-27T05:39:36.623Z,100189.00
2022-11-27T05:42:10.561Z,100190.00
2022-11-27T05:44:37.611Z,100190.00
2022-11-27T05:47:11.568Z,100185.00
2022-11-27T05:49:38.478Z,100181.00
2022-11-27T05:52:05.604Z,100177.00
2022-11-27T05:54:39.743Z,100187.00
2022-11-27T05:57:06.941Z,100193.00
2022-11-27T05:59:40.525Z,100195.00
2022-11-27T06:02:07.536Z,100167.00
2022-11-27T06:04:34.804Z,100184.00
2022-11-27T06:07:08.509Z,100179.00
2022-11-27T06:09:38.149Z,100189.00
2022-11-27T06:12:05.353Z,100179.00
2022-11-27T06:14:38.704Z,100181.00
2022-11-27T06:17:05.910Z,100173.00
2022-11-27T06:19:39.461Z,100162.00
2022-11-27T06:22:06.405Z,100185.00
2022-11-27T06:24:40.926Z,100170.00
2022-11-27T06:27:08.175Z,100190.00
2022-11-27T06:29:36.764Z,100186.00
2022-11-27T06:32:11.526Z,100181.00
2022-11-27T06:34:45.528Z,100183.00
2022-11-27T06:37:19.555Z,100188.00
2022-11-27T06:39:54.432Z,100165.00
2022-11-27T06:42:27.537Z,100186.00
2022-11-27T06:44:54.493Z,100176.00
2022-11-27T06:47:28.525Z,100146.00
2022-11-27T06:50:08.648Z,100165.00
2022-11-27T06:52:40.194Z,100168.00
2022-11-27T06:55:08.055Z,100183.00
2022-11-27T06:57:41.451Z,100178.00
2022-11-27T07:00:09.193Z,100177.00
2022-11-27T07:02:42.535Z,100179.00
2022-11-27T07:05:09.658Z,100186.00
2022-11-27T07:07:44.038Z,100178.00
2022-11-27T07:10:11.745Z,100179.00
2022-11-27T07:12:45.534Z,100172.00
2022-11-27T07:15:17.568Z,100174.00
2022-11-27T07:17:51.523Z,100184.00
2022-11-27T07:20:18.562Z,100168.00
2022-11-27T07:22:45.610Z,100163.00
2022-11-27T07:25:19.541Z,100178.00
2022-11-27T07:27:53.505Z,100191.00
2022-11-27T07:30:27.567Z,100187.00
2022-11-27T07:33:01.558Z,100178.00
2022-11-27T07:35:35.529Z,100182.00
2022-11-27T07:38:02.480Z,100190.00
2022-11-27T07:40:35.536Z,100185.00
2022-11-27T07:43:02.520Z,100166.00
2022-11-27T07:45:36.576Z,100201.00
2022-11-27T07:48:03.920Z,100183.00
2022-11-27T07:50:30.970Z,100161.00
2022-11-27T07:53:05.543Z,100176.00
2022-11-27T07:55:32.578Z,100178.00
2022-11-27T07:58:05.513Z,100188.00
2022-11-27T08:00:32.447Z,100187.00
2022-11-27T08:03:00.187Z,100172.00
2022-11-27T08:05:33.513Z,100187.00
2022-11-27T08:08:01.295Z,100184.00
2022-11-27T08:10:28.276Z,100198.00
2022-11-27T08:13:01.527Z,100219.00
2022-11-27T08:15:28.510Z,100219.00
2022-11-27T08:18:02.549Z,100206.00
2022-11-27T08:20:29.506Z,100186.00
2022-11-27T08:23:02.307Z,100204.00
2022-11-27T08:25:36.528Z,100174.00
2022-11-27T08:28:03.613Z,100191.00
2022-11-27T08:30:30.593Z,100190.00
2022-11-27T08:33:03.533Z,100201.00
2022-11-27T08:35:36.595Z,100202.00
2022-11-27T08:38:03.706Z,100205.00
2022-11-27T08:40:37.563Z,100200.00
2022-11-27T08:43:04.595Z,100185.00
2022-11-27T08:45:31.623Z,100181.00
2022-11-27T08:48:05.561Z,100187.00
2022-11-27T08:50:32.474Z,100189.00
2022-11-27T08:53:05.526Z,100169.00
2022-11-27T08:55:32.480Z,100187.00
2022-11-27T08:58:05.562Z,100191.00
2022-11-27T09:00:33.118Z,100199.00
2022-11-27T09:03:08.033Z,100197.00
2022-11-27T09:05:41.646Z,100175.00
2022-11-27T09:08:15.746Z,100183.00
2022-11-27T09:10:42.719Z,100196.00
2022-11-27T09:13:16.615Z,100191.00
2022-11-27T09:15:50.533Z,100194.00
2022-11-27T09:18:23.570Z,100197.00
2022-11-27T09:21:05.857Z,100213.00
2022-11-27T09:23:33.296Z,100210.00
2022-11-27T09:26:05.509Z,100208.00
2022-11-27T09:28:39.620Z,100211.00
2022-11-27T09:31:08.679Z,100208.00
2022-11-27T09:33:43.598Z,100206.00
2022-11-27T09:36:15.647Z,100223.00
2022-11-27T09:38:49.657Z,100230.00
2022-11-27T09:41:38.534Z,100228.00
2022-11-27T09:44:30.775Z,100215.00
2022-11-27T09:47:07.558Z,100204.00
2022-11-27T09:49:48.057Z,100210.00
2022-11-27T09:52:46.629Z,100211.00
2022-11-27T09:55:16.719Z,100208.00
2022-11-27T09:57:52.580Z,100206.00
2022-11-27T10:00:26.588Z,100206.00
2022-11-27T10:02:53.722Z,100190.00
2022-11-27T10:05:33.575Z,100194.00
2022-11-27T10:08:42.652Z,100182.00
2022-11-27T10:11:52.776Z,100173.00
2022-11-27T10:14:35.609Z,100190.00
2022-11-27T10:17:09.442Z,100189.00
2022-11-27T10:20:10.680Z,100188.00
2022-11-27T10:23:15.663Z,100177.00
2022-11-27T10:25:50.308Z,100179.00
2022-11-27T10:28:57.581Z,100173.00
2022-11-27T10:31:59.506Z,100161.00
2022-11-27T10:35:05.647Z,100172.00
2022-11-27T10:38:16.615Z,100145.00
2022-11-27T10:41:34.301Z,100153.00
2022-11-27T10:44:18.655Z,100154.00
2022-11-27T10:46:52.632Z,100134.00
2022-11-27T10:49:19.658Z,100136.00
2022-11-27T10:51:46.604Z,100125.00
2022-11-27T10:54:32.697Z,100125.00
2022-11-27T10:57:42.848Z,100140.00
2022-11-27T11:00:11.560Z,100131.00
2022-11-27T11:02:46.466Z,100128.00
2022-11-27T11:05:50.992Z,100105.00
2022-11-27T11:08:24.680Z,100120.00
2022-11-27T11:10:58.407Z,100116.00
2022-11-27T11:13:51.638Z,100099.00
2022-11-27T11:16:24.753Z,100076.00
2022-11-27T11:19:01.765Z,100091.00
2022-11-27T11:21:50.800Z,100063.00
2022-11-27T11:24:39.727Z,100065.00
2022-11-27T11:27:36.600Z,100089.00
2022-11-27T11:30:06.015Z,100079.00
2022-11-27T11:32:43.847Z,100084.00
2022-11-27T11:35:28.803Z,100088.00
2022-11-27T11:38:02.825Z,100080.00
2022-11-27T11:40:34.649Z,100070.00
2022-11-27T11:43:13.671Z,100050.00
2022-11-27T11:45:47.547Z,100052.00
2022-11-27T11:48:34.718Z,100041.00
2022-11-27T11:51:52.607Z,100046.00
2022-11-27T11:54:49.638Z,100055.00
2022-11-27T11:57:51.595Z,100029.00
2022-11-27T12:00:31.564Z,100044.00
2022-11-27T12:03:23.830Z,100037.00
2022-11-27T12:06:43.619Z,100032.00
2022-11-27T12:09:57.630Z,100036.00
2022-11-27T12:12:48.102Z,100036.00
2022-11-27T12:15:56.633Z,100027.00
2022-11-27T12:19:02.616Z,100024.00
2022-11-27T12:22:03.653Z,100019.00
2022-11-27T12:24:55.448Z,100014.00
2022-11-27T12:27:50.628Z,100017.00
2022-11-27T12:30:30.656Z,100010.00
2022-11-27T12:33:21.658Z,100004.00
2022-11-27T12:36:19.645Z,100000.00
2022-11-27T12:39:14.904Z,99999.00
2022-11-27T12:42:22.104Z,99993.00
2022-11-27T12:45:07.644Z,99987.00
2022-11-27T12:48:22.658Z,99992.00
2022-11-27T12:51:09.183Z,99984.00
2022-11-27T12:53:57.664Z,99981.00
2022-11-27T12:56:42.773Z,99975.00
2022-11-27T12:59:39.681Z,99968.00
2022-11-27T13:02:42.197Z,99977.00
2022-11-27T13:05:25.654Z,99973.00
2022-11-27T13:08:01.167Z,99980.00
2022-11-27T13:10:49.621Z,99975.00
2022-11-27T13:13:34.765Z,99972.00
2022-11-27T13:16:12.888Z,99960.00
2022-11-27T13:19:16.669Z,99964.00
2022-11-27T13:21:43.584Z,99958.00
2022-11-27T13:24:18.656Z,99957.00
2022-11-27T13:27:00.629Z,99950.00
2022-11-27T13:30:07.663Z,99956.00
2022-11-27T13:32:43.321Z,99941.00
2022-11-27T13:35:37.671Z,99948.00
2022-11-27T13:38:19.649Z,99941.00
2022-11-27T13:40:51.428Z,99924.00
2022-11-27T13:43:48.642Z,99941.00
2022-11-27T13:46:34.696Z,99938.00
2022-11-27T13:49:04.756Z,99938.00
2022-11-27T13:51:43.696Z,99950.00
2022-11-27T13:54:15.946Z,99949.00
2022-11-27T13:56:49.640Z,99951.00
2022-11-27T13:59:33.994Z,99953.00
2022-11-27T14:02:12.734Z,99957.00
2022-11-27T14:04:56.557Z,99961.00
2022-11-27T14:07:23.589Z,99961.00
2022-11-27T14:10:00.701Z,99961.00
2022-11-27T14:12:30.679Z,99944.00
2022-11-27T14:15:08.643Z,99945.00
2022-11-27T14:17:42.288Z,99942.00
2022-11-27T14:20:24.681Z,99946.00
2022-11-27T14:23:12.690Z,99945.00
2022-11-27T14:25:46.682Z,99944.00
2022-11-27T14:28:23.829Z,99929.00
2022-11-27T14:30:57.684Z,99939.00
2022-11-27T14:34:07.308Z,99932.00
2022-11-27T14:36:37.655Z,99928.00
2022-11-27T14:39:04.798Z,99929.00
2022-11-27T14:41:31.815Z,99934.00
2022-11-27T14:44:10.710Z,99918.00
2022-11-27T14:46:43.733Z,99934.00
2022-11-27T14:49:19.081Z,99933.00
2022-11-27T14:51:52.710Z,99921.00
2022-11-27T14:54:39.822Z,99927.00
2022-11-27T14:57:13.720Z,99894.00
2022-11-27T14:59:40.876Z,99894.00
2022-11-27T15:02:23.414Z,99902.00
2022-11-27T15:05:09.717Z,99906.00
2022-11-27T15:07:43.992Z,99903.00
2022-11-27T15:10:41.708Z,99916.00
2022-11-27T15:13:24.313Z,99908.00
2022-11-27T15:16:22.804Z,99904.00
2022-11-27T15:19:02.621Z,99896.00
2022-11-27T15:21:35.692Z,99907.00
2022-11-27T15:24:08.748Z,99900.00
2022-11-27T15:26:38.570Z,99883.00
2022-11-27T15:29:42.030Z,99901.00
2022-11-27T15:32:23.992Z,99893.00
2022-11-27T15:34:58.706Z,99900.00
2022-11-27T15:37:31.785Z,99895.00
2022-11-27T15:40:05.782Z,99889.00
2022-11-27T15:42:39.761Z,99885.00
2022-11-27T15:45:09.276Z,99868.00
2022-11-27T15:47:43.726Z,99869.00
2022-11-27T15:50:15.334Z,99871.00
2022-11-27T15:52:48.836Z,99871.00
2022-11-27T15:55:15.803Z,99882.00
2022-11-27T15:57:49.777Z,99876.00
2022-11-27T16:00:17.439Z,99869.00
2022-11-27T16:02:44.385Z,99851.00
2022-11-27T16:05:17.752Z,99864.00
2022-11-27T16:07:44.752Z,99858.00
2022-11-27T16:10:18.797Z,99859.00
2022-11-27T16:12:45.706Z,99861.00
2022-11-27T16:15:18.729Z,99864.00
2022-11-27T16:17:45.591Z,99856.00
2022-11-27T16:20:19.766Z,99856.00
2022-11-27T16:22:46.690Z,99845.00
2022-11-27T16:25:13.700Z,99842.00
2022-11-27T16:27:46.816Z,99852.00
2022-11-27T16:30:14.064Z,99857.00
2022-11-27T16:32:47.795Z,99846.00
2022-11-27T16:35:14.817Z,99857.00
2022-11-27T16:37:41.962Z,99852.00
2022-11-27T16:40:15.728Z,99847.00
2022-11-27T16:42:42.662Z,99853.00
2022-11-27T16:45:16.844Z,99835.00
2022-11-27T16:47:43.784Z,99844.00
2022-11-27T16:50:17.744Z,99844.00
2022-11-27T16:52:44.817Z,99836.00
2022-11-27T16:55:17.843Z,99800.00
2022-11-27T16:57:44.765Z,99830.00
2022-11-27T17:00:18.768Z,99821.00
2022-11-27T17:02:45.810Z,99809.00
2022-11-27T17:05:18.794Z,99805.00
2022-11-27T17:07:46.198Z,99808.00
2022-11-27T17:10:19.828Z,99822.00
2022-11-27T17:12:46.918Z,99828.00
2022-11-27T17:15:20.789Z,99826.00
2022-11-27T17:17:53.834Z,99840.00
2022-11-27T17:20:20.837Z,99835.00
2022-11-27T17:22:54.815Z,99838.00
2022-11-27T17:25:21.901Z,99811.00
2022-11-27T17:27:55.854Z,99809.00
2022-11-27T17:30:25.500Z,99821.00
2022-11-27T17:33:01.939Z,99791.00
2022-11-27T17:35:29.041Z,99794.00
2022-11-27T17:38:02.867Z,99786.00
2022-11-27T17:40:29.826Z,99777.00
2022-11-27T17:43:03.901Z,99771.00
2022-11-27T17:45:30.997Z,99780.00
2022-11-27T17:47:58.164Z,99760.00
2022-11-27T17:50:31.859Z,99799.00
2022-11-27T17:53:04.834Z,99795.00
2022-11-27T17:55:31.784Z,99802.00
2022-11-27T17:58:04.893Z,99793.00
2022-11-27T18:00:34.321Z,99787.00
2022-11-27T18:03:06.148Z,99789.00
2022-11-27T18:05:46.889Z,99794.00
2022-11-27T18:08:20.836Z,99779.00
2022-11-27T18:10:47.835Z,99783.00
2022-11-27T18:13:20.872Z,99787.00
2022-11-27T18:15:54.880Z,99784.00
2022-11-27T18:18:21.880Z,99780.00
2022-11-27T18:20:55.824Z,99782.00
2022-11-27T18:23:22.809Z,99789.00
2022-11-27T18:25:55.953Z,99789.00
2022-11-27T18:28:22.840Z,99782.00
2022-11-27T18:30:50.816Z,99776.00
2022-11-27T18:33:24.931Z,99767.00
2022-11-27T18:36:00.032Z,99760.00
2022-11-27T18:38:34.270Z,99770.00
2022-11-27T18:41:10.368Z,99767.00
2022-11-27T18:43:53.342Z,99753.00
2022-11-27T18:46:23.919Z,99760.00
2022-11-27T18:49:07.692Z,99758.00
2022-11-27T18:51:35.020Z,99750.00
2022-11-27T18:54:09.226Z,99753.00
2022-11-27T18:56:36.723Z,99757.00
2022-11-27T18:59:20.038Z,99755.00
2022-11-27T19:01:47.596Z,99735.00
2022-11-27T19:04:25.130Z,99733.00
2022-11-27T19:07:04.828Z,99746.00
2022-11-27T19:09:37.851Z,99754.00
2022-11-27T19:12:11.844Z,99725.00
2022-11-27T19:14:38.916Z,99728.00
2022-11-27T19:17:12.073Z,99725.00
2022-11-27T19:19:56.455Z,99747.00
2022-11-27T19:22:29.883Z,99749.00
2022-11-27T19:24:56.914Z,99746.00
2022-11-27T19:27:31.000Z,99747.00
2022-11-27T19:29:57.986Z,99740.00
2022-11-27T19:32:31.858Z,99724.00
2022-11-27T19:35:08.827Z,99736.00
2022-11-27T19:37:44.918Z,99735.00
2022-11-27T19:40:14.481Z,99739.00
2022-11-27T19:42:48.026Z,99696.00
2022-11-27T19:45:21.988Z,99727.00
2022-11-27T19:47:48.997Z,99724.00
2022-11-27T19:50:22.938Z,99715.00
2022-11-27T19:52:52.469Z,99724.00
2022-11-27T19:55:30.199Z,99702.00
2022-11-27T19:58:04.041Z,99711.00
2022-11-27T20:00:39.606Z,99712.00
2022-11-27T20:03:16.891Z,99706.00
2022-11-27T20:05:43.809Z,99727.00
2022-11-27T20:08:18.008Z,99699.00
2022-11-27T20:10:56.973Z,99721.00
2022-11-27T20:13:23.932Z,99697.00
2022-11-27T20:16:04.005Z,99704.00
2022-11-27T20:18:32.807Z,99697.00
2022-11-27T20:21:32.940Z,99685.00
2022-11-27T20:24:02.796Z,99676.00
2022-11-27T20:26:42.401Z,99698.00
2022-11-27T20:29:11.944Z,99706.00
2022-11-27T20:31:47.071Z,99680.00
2022-11-27T20:34:19.823Z,99664.00
2022-11-27T20:36:46.958Z,99681.00
2022-11-27T20:39:24.940Z,99690.00
2022-11-27T20:41:58.962Z,99702.00
2022-11-27T20:44:26.053Z,99677.00
2022-11-27T20:46:59.872Z,99699.00
2022-11-27T20:49:33.972Z,99691.00
2022-11-27T20:52:04.301Z,99703.00
2022-11-27T20:54:40.949Z,99672.00
2022-11-27T20:57:07.948Z,99702.00
2022-11-27T20:59:44.211Z,99691.00
2022-11-27T21:02:11.625Z,99694.00
2022-11-27T21:04:49.350Z,99688.00
2022-11-27T21:07:16.417Z,99692.00
2022-11-27T21:09:49.953Z,99688.00
2022-11-27T21:12:16.988Z,99689.00
2022-11-27T21:14:51.041Z,99694.00
2022-11-27T21:17:18.105Z,99677.00
2022-11-27T21:19:50.635Z,99661.00
2022-11-27T21:22:23.920Z,99658.00
2022-11-27T21:24:59.372Z,99653.00
2022-11-27T21:27:37.676Z,99653.00
2022-11-27T21:30:13.078Z,99681.00
2022-11-27T21:32:40.054Z,99662.00
2022-11-27T21:35:13.961Z,99632.00
2022-11-27T21:37:41.176Z,99646.00
2022-11-27T21:40:12.354Z,99647.00
2022-11-27T21:42:48.944Z,99650.00
2022-11-27T21:45:16.093Z,99647.00
2022-11-27T21:47:51.956Z,99649.00
2022-11-27T21:50:19.046Z,99634.00
2022-11-27T21:52:45.925Z,99649.00
2022-11-27T21:55:18.933Z,99636.00
2022-11-27T21:57:45.895Z,99651.00
2022-11-27T22:00:19.977Z,99644.00
2022-11-27T22:02:47.159Z,99637.00
2022-11-27T22:05:14.241Z,99632.00
2022-11-27T22:07:47.982Z,99627.00
2022-11-27T22:10:14.948Z,99631.00
2022-11-27T22:12:47.953Z,99630.00
2022-11-27T22:15:14.841Z,99633.00
2022-11-27T22:17:41.773Z,99631.00
2022-11-27T22:20:15.949Z,99628.00
2022-11-27T22:22:42.909Z,99613.00
2022-11-27T22:25:16.942Z,99637.00
2022-11-27T22:27:43.903Z,99639.00
2022-11-27T22:30:17.940Z,99645.00
2022-11-27T22:32:44.909Z,99642.00
2022-11-27T22:35:17.998Z,99641.00
2022-11-27T22:37:44.902Z,99645.00
2022-11-27T22:40:12.861Z,99638.00
2022-11-27T22:42:46.044Z,99637.00
2022-11-27T22:45:13.096Z,99632.00
2022-11-27T22:47:46.949Z,99636.00
2022-11-27T22:50:13.849Z,99631.00
2022-11-27T22:52:46.952Z,99641.00
2022-11-27T22:55:13.905Z,99619.00
2022-11-27T22:57:46.974Z,99634.00
2022-11-27T23:00:14.735Z,99634.00
2022-11-27T23:02:41.706Z,99648.00
2022-11-27T23:05:16.031Z,99643.00
2022-11-27T23:07:42.927Z,99637.00
2022-11-27T23:10:16.991Z,99614.00
2022-11-27T23:12:43.909Z,99644.00
2022-11-27T23:15:18.001Z,99640.00
2022-11-27T23:17:50.986Z,99627.00
2022-11-27T23:20:17.894Z,99632.00
2022-11-27T23:22:50.935Z,99623.00
2022-11-27T23:25:24.100Z,99624.00
2022-11-27T23:27:51.363Z,99631.00
2022-11-27T23:30:24.984Z,99626.00
2022-11-27T23:32:58.027Z,99623.00
2022-11-27T23:35:32.192Z,99629.00
2022-11-27T23:38:05.970Z,99621.00
2022-11-27T23:40:32.805Z,99606.00
2022-11-27T23:43:05.985Z,99621.00
2022-11-27T23:45:32.878Z,99620.00
2022-11-27T23:48:07.016Z,99604.00
2022-11-27T23:50:33.956Z,99610.00
2022-11-27T23:53:06.993Z,99616.00
2022-11-27T23:55:36.361Z,99596.00
2022-11-27T23:58:11.887Z,99592.00
